sensor_id;sensor_type;location;lat;lon;timestamp;pressure;altitude;pressure_sealevel;temperature;humidity
16120;BME280;12670;53.502;10.252;2022-09-25T00:00:42;100908.88;;;14.52;100.00
16120;BME280;12670;53.502;10.252;2022-09-25T00:03:45;100907.97;;;14.36;100.00
16120;BME280;12670;53.502;10.252;2022-09-25T00:06:48;100902.72;;;14.34;100.00
16120;BME280;12670;53.502;10.252;2022-09-25T00:09:51;100909.25;;;14.29;100.00
16120;BME280;12670;53.502;10.252;2022-09-25T00:12:54;100905.56;;;14.31;100.00
16120;BME280;12670;53.502;10.252;2022-09-25T00:15:57;100906.25;;;14.35;100.00
16120;BME280;12670;53.502;10.252;2022-09-25T00:19:00;100899.41;;;14.47;100.00
16120;BME280;12670;53.502;10.252;2022-09-25T00:22:22;100901.28;;;14.45;100.00
16120;BME280;12670;53.502;10.252;2022-09-25T00:25:26;100902.78;;;14.50;100.00
16120;BME280;12670;53.502;10.252;2022-09-25T00:28:30;100898.63;;;14.45;100.00
16120;BME280;12670;53.502;10.252;2022-09-25T00:31:33;100898.41;;;14.49;100.00
16120;BME280;12670;53.502;10.252;2022-09-25T00:34:36;100899.34;;;14.48;100.00
16120;BME280;12670;53.502;10.252;2022-09-25T00:37:39;100895.63;;;14.51;100.00
16120;BME280;12670;53.502;10.252;2022-09-25T00:40:41;100893.53;;;14.40;100.00
16120;BME280;12670;53.502;10.252;2022-09-25T00:43:47;100893.34;;;14.27;100.00
16120;BME280;12670;53.502;10.252;2022-09-25T00:46:50;100900.56;;;14.41;100.00
16120;BME280;12670;53.502;10.252;2022-09-25T00:49:55;100895.94;;;14.45;100.00
16120;BME280;12670;53.502;10.252;2022-09-25T00:53:04;100895.09;;;14.44;100.00
16120;BME280;12670;53.502;10.252;2022-09-25T00:56:10;100908.16;;;14.33;100.00
16120;BME280;12670;53.502;10.252;2022-09-25T00:59:17;100898.44;;;14.32;100.00
16120;BME280;12670;53.502;10.252;2022-09-25T01:02:24;100894.03;;;14.31;100.00
16120;BME280;12670;53.502;10.252;2022-09-25T01:05:31;100891.97;;;14.36;100.00
16120;BME280;12670;53.502;10.252;2022-09-25T01:08:35;100890.69;;;14.43;100.00
16120;BME280;12670;53.502;10.252;2022-09-25T01:11:39;100895.25;;;14.41;100.00
16120;BME280;12670;53.502;10.252;2022-09-25T01:14:43;100894.38;;;14.25;100.00
16120;BME280;12670;53.502;10.252;2022-09-25T01:17:54;100893.84;;;14.34;100.00
16120;BME280;12670;53.502;10.252;2022-09-25T01:21:09;100893.09;;;14.32;100.00
16120;BME280;12670;53.502;10.252;2022-09-25T01:24:36;100887.91;;;14.29;100.00
16120;BME280;12670;53.502;10.252;2022-09-25T01:27:53;100889.13;;;14.39;100.00
16120;BME280;12670;53.502;10.252;2022-09-25T01:31:11;100889.72;;;14.28;100.00
16120;BME280;12670;53.502;10.252;2022-09-25T01:34:21;100900.47;;;14.27;100.00
16120;BME280;12670;53.502;10.252;2022-09-25T01:37:32;100894.88;;;14.16;100.00
16120;BME280;12670;53.502;10.252;2022-09-25T01:40:45;100894.19;;;14.28;100.00
16120;BME280;12670;53.502;10.252;2022-09-25T01:43:55;100898.16;;;14.21;100.00
16120;BME280;12670;53.502;10.252;2022-09-25T01:47:07;100899.00;;;14.21;100.00
16120;BME280;12670;53.502;10.252;2022-09-25T01:50:13;100894.03;;;14.31;100.00
16120;BME280;12670;53.502;10.252;2022-09-25T01:53:22;100895.91;;;14.29;100.00
16120;BME280;12670;53.502;10.252;2022-09-25T01:56:30;100896.97;;;14.26;100.00
16120;BME280;12670;53.502;10.252;2022-09-25T01:59:36;100894.91;;;14.31;100.00
16120;BME280;12670;53.502;10.252;2022-09-25T02:02:44;100888.84;;;14.28;100.00
16120;BME280;12670;53.502;10.252;2022-09-25T02:05:52;100889.91;;;14.25;100.00
16120;BME280;12670;53.502;10.252;2022-09-25T02:09:00;100887.28;;;14.24;100.00
16120;BME280;12670;53.502;10.252;2022-09-25T02:12:09;100888.84;;;14.28;100.00
16120;BME280;12670;53.502;10.252;2022-09-25T02:15:16;100886.28;;;14.26;100.00
16120;BME280;12670;53.502;10.252;2022-09-25T02:18:23;100883.09;;;14.35;100.00
16120;BME280;12670;53.502;10.252;2022-09-25T02:21:48;100894.22;;;14.44;100.00
16120;BME280;12670;53.502;10.252;2022-09-25T02:24:55;100884.56;;;14.41;100.00
16120;BME280;12670;53.502;10.252;2022-09-25T02:28:00;100880.94;;;14.42;100.00
16120;BME280;12670;53.502;10.252;2022-09-25T02:31:07;100888.94;;;14.42;100.00
16120;BME280;12670;53.502;10.252;2022-09-25T02:34:12;100886.28;;;14.42;100.00
16120;BME280;12670;53.502;10.252;2022-09-25T02:37:16;100891.63;;;14.42;100.00
16120;BME280;12670;53.502;10.252;2022-09-25T02:40:22;100886.28;;;14.42;100.00
16120;BME280;12670;53.502;10.252;2022-09-25T02:43:38;100889.81;;;14.27;100.00
16120;BME280;12670;53.502;10.252;2022-09-25T02:46:50;100886.97;;;14.30;100.00
16120;BME280;12670;53.502;10.252;2022-09-25T02:50:03;100883.94;;;14.36;100.00
16120;BME280;12670;53.502;10.252;2022-09-25T02:53:13;100886.28;;;14.42;100.00
16120;BME280;12670;53.502;10.252;2022-09-25T02:56:25;100876.28;;;14.30;100.00
16120;BME280;12670;53.502;10.252;2022-09-25T02:59:33;100878.09;;;14.29;100.00
16120;BME280;12670;53.502;10.252;2022-09-25T03:02:38;100882.41;;;14.32;100.00
16120;BME280;12670;53.502;10.252;2022-09-25T03:05:45;100876.56;;;14.41;100.00
16120;BME280;12670;53.502;10.252;2022-09-25T03:08:50;100881.03;;;14.40;100.00
16120;BME280;12670;53.502;10.252;2022-09-25T03:11:55;100878.22;;;14.44;100.00
16120;BME280;12670;53.502;10.252;2022-09-25T03:14:57;100882.50;;;14.46;100.00
16120;BME280;12670;53.502;10.252;2022-09-25T03:18:00;100880.94;;;14.42;100.00
16120;BME280;12670;53.502;10.252;2022-09-25T03:21:04;100874.22;;;14.35;100.00
16120;BME280;12670;53.502;10.252;2022-09-25T03:24:06;100867.50;;;14.28;100.00
16120;BME280;12670;53.502;10.252;2022-09-25T03:27:10;100874.56;;;14.29;100.00
16120;BME280;12670;53.502;10.252;2022-09-25T03:30:12;100872.50;;;14.34;100.00
16120;BME280;12670;53.502;10.252;2022-09-25T03:33:15;100877.00;;;14.33;100.00
16120;BME280;12670;53.502;10.252;2022-09-25T03:36:21;100869.69;;;14.37;100.00
16120;BME280;12670;53.502;10.252;2022-09-25T03:39:24;100878.72;;;14.34;100.00
16120;BME280;12670;53.502;10.252;2022-09-25T03:42:26;100871.63;;;14.18;100.00
16120;BME280;12670;53.502;10.252;2022-09-25T03:45:29;100875.69;;;14.25;100.00
16120;BME280;12670;53.502;10.252;2022-09-25T03:48:31;100868.94;;;14.18;100.00
16120;BME280;12670;53.502;10.252;2022-09-25T03:51:35;100869.06;;;14.32;100.00
16120;BME280;12670;53.502;10.252;2022-09-25T03:54:39;100870.94;;;14.30;100.00
16120;BME280;12670;53.502;10.252;2022-09-25T03:57:41;100871.72;;;14.16;100.00
16120;BME280;12670;53.502;10.252;2022-09-25T04:00:45;100862.00;;;14.15;100.00
16120;BME280;12670;53.502;10.252;2022-09-25T04:03:48;100869.75;;;14.20;100.00
16120;BME280;12670;53.502;10.252;2022-09-25T04:06:52;100866.28;;;14.18;100.00
16120;BME280;12670;53.502;10.252;2022-09-25T04:09:55;100862.16;;;14.28;100.00
16120;BME280;12670;53.502;10.252;2022-09-25T04:12:57;100869.41;;;14.26;100.00
16120;BME280;12670;53.502;10.252;2022-09-25T04:16:01;100866.41;;;14.32;100.00
16120;BME280;12670;53.502;10.252;2022-09-25T04:19:05;100866.41;;;14.32;100.00
16120;BME280;12670;53.502;10.252;2022-09-25T04:22:09;100862.16;;;14.28;100.00
16120;BME280;12670;53.502;10.252;2022-09-25T04:25:11;100869.84;;;14.34;100.00
16120;BME280;12670;53.502;10.252;2022-09-25T04:28:14;100869.06;;;14.32;100.00
16120;BME280;12670;53.502;10.252;2022-09-25T04:31:16;100868.03;;;14.34;100.00
16120;BME280;12670;53.502;10.252;2022-09-25T04:34:19;100864.84;;;14.28;100.00
16120;BME280;12670;53.502;10.252;2022-09-25T04:37:22;100863.97;;;14.27;100.00
16120;BME280;12670;53.502;10.252;2022-09-25T04:40:27;100871.81;;;14.30;100.00
16120;BME280;12670;53.502;10.252;2022-09-25T04:43:30;100865.03;;;14.25;100.00
16120;BME280;12670;53.502;10.252;2022-09-25T04:46:33;100868.59;;;14.08;100.00
16120;BME280;12670;53.502;10.252;2022-09-25T04:49:36;100867.16;;;14.18;100.00
16120;BME280;12670;53.502;10.252;2022-09-25T04:52:40;100862.34;;;14.25;100.00
16120;BME280;12670;53.502;10.252;2022-09-25T04:55:43;100858.88;;;14.23;100.00
16120;BME280;12670;53.502;10.252;2022-09-25T04:58:48;100875.94;;;14.20;100.00
16120;BME280;12670;53.502;10.252;2022-09-25T05:01:50;100867.69;;;14.25;100.00
16120;BME280;12670;53.502;10.252;2022-09-25T05:04:53;100870.44;;;14.23;100.00
16120;BME280;12670;53.502;10.252;2022-09-25T05:07:58;100872.75;;;14.29;100.00
16120;BME280;12670;53.502;10.252;2022-09-25T05:11:01;100865.78;;;14.27;100.00
16120;BME280;12670;53.502;10.252;2022-09-25T05:14:04;100870.25;;;14.10;100.00
16120;BME280;12670;53.502;10.252;2022-09-25T05:17:07;100871.72;;;14.16;100.00
16120;BME280;12670;53.502;10.252;2022-09-25T05:20:11;100871.63;;;14.18;100.00
16120;BME280;12670;53.502;10.252;2022-09-25T05:23:16;100865.78;;;14.27;100.00
16120;BME280;12670;53.502;10.252;2022-09-25T05:26:19;100870.09;;;14.13;100.00
16120;BME280;12670;53.502;10.252;2022-09-25T05:29:21;100867.69;;;14.25;100.00
16120;BME280;12670;53.502;10.252;2022-09-25T05:32:24;100866.91;;;14.23;100.00
16120;BME280;12670;53.502;10.252;2022-09-25T05:35:28;100875.44;;;14.29;100.00
16120;BME280;12670;53.502;10.252;2022-09-25T05:38:34;100864.41;;;14.20;100.00
16120;BME280;12670;53.502;10.252;2022-09-25T05:41:37;100867.09;;;14.20;100.00
16120;BME280;12670;53.502;10.252;2022-09-25T05:44:40;100869.22;;;14.13;100.00
16120;BME280;12670;53.502;10.252;2022-09-25T05:47:43;100867.69;;;14.25;100.00
16120;BME280;12670;53.502;10.252;2022-09-25T05:50:50;100865.03;;;14.25;100.00
16120;BME280;12670;53.502;10.252;2022-09-25T05:53:54;100864.75;;;14.29;100.00
16120;BME280;12670;53.502;10.252;2022-09-25T05:56:57;100862.34;;;14.25;100.00
16120;BME280;12670;53.502;10.252;2022-09-25T06:00:00;100858.56;;;14.29;100.00
16120;BME280;12670;53.502;10.252;2022-09-25T06:03:03;100858.41;;;14.32;100.00
16120;BME280;12670;53.502;10.252;2022-09-25T06:06:06;100863.66;;;14.33;100.00
16120;BME280;12670;53.502;10.252;2022-09-25T06:09:10;100855.47;;;14.21;100.00
16120;BME280;12670;53.502;10.252;2022-09-25T06:12:12;100854.78;;;14.33;100.00
16120;BME280;12670;53.502;10.252;2022-09-25T06:15:15;100853.31;;;14.27;100.00
16120;BME280;12670;53.502;10.252;2022-09-25T06:18:18;100853.22;;;14.29;100.00
16120;BME280;12670;53.502;10.252;2022-09-25T06:21:21;100855.13;;;14.27;100.00
16120;BME280;12670;53.502;10.252;2022-09-25T06:24:25;100846.50;;;14.22;100.00
16120;BME280;12670;53.502;10.252;2022-09-25T06:27:28;100854.50;;;14.22;100.00
16120;BME280;12670;53.502;10.252;2022-09-25T06:30:33;100855.28;;;14.24;100.00
16120;BME280;12670;53.502;10.252;2022-09-25T06:33:36;100852.69;;;14.22;100.00
16120;BME280;12670;53.502;10.252;2022-09-25T06:36:38;100849.78;;;14.27;100.00
16120;BME280;12670;53.502;10.252;2022-09-25T06:39:42;100853.06;;;14.32;100.00
16120;BME280;12670;53.502;10.252;2022-09-25T06:42:44;100849.53;;;14.31;100.00
16120;BME280;12670;53.502;10.252;2022-09-25T06:45:47;100856.84;;;14.28;100.00
16120;BME280;12670;53.502;10.252;2022-09-25T06:48:50;100857.03;;;14.25;100.00
16120;BME280;12670;53.502;10.252;2022-09-25T06:51:54;100862.34;;;14.25;100.00
16120;BME280;12670;53.502;10.252;2022-09-25T06:54:58;100859.06;;;14.35;100.00
16120;BME280;12670;53.502;10.252;2022-09-25T06:58:01;100856.13;;;14.08;100.00
16120;BME280;12670;53.502;10.252;2022-09-25T07:01:04;100855.97;;;14.27;100.00
16120;BME280;12670;53.502;10.252;2022-09-25T07:04:10;100853.91;;;14.32;100.00
16120;BME280;12670;53.502;10.252;2022-09-25T07:07:13;100849.59;;;14.30;100.00
16120;BME280;12670;53.502;10.252;2022-09-25T07:10:20;100854.09;;;14.45;100.00
16120;BME280;12670;53.502;10.252;2022-09-25T07:13:24;100853.97;;;14.48;100.00
16120;BME280;12670;53.502;10.252;2022-09-25T07:16:28;100852.47;;;14.58;100.00
16120;BME280;12670;53.502;10.252;2022-09-25T07:19:31;100854.63;;;14.52;100.00
16120;BME280;12670;53.502;10.252;2022-09-25T07:22:33;100861.03;;;14.49;100.00
16120;BME280;12670;53.502;10.252;2022-09-25T07:25:37;100864.91;;;14.42;100.00
16120;BME280;12670;53.502;10.252;2022-09-25T07:28:42;100864.31;;;14.54;100.00
16120;BME280;12670;53.502;10.252;2022-09-25T07:31:45;100870.66;;;14.68;100.00
16120;BME280;12670;53.502;10.252;2022-09-25T07:34:47;100869.72;;;14.69;100.00
16120;BME280;12670;53.502;10.252;2022-09-25T07:37:54;100867.72;;;14.72;100.00
16120;BME280;12670;53.502;10.252;2022-09-25T07:40:58;100875.22;;;14.65;100.00
16120;BME280;12670;53.502;10.252;2022-09-25T07:44:01;100873.06;;;14.56;100.00
16120;BME280;12670;53.502;10.252;2022-09-25T07:47:23;100876.84;;;14.52;100.00
16120;BME280;12670;53.502;10.252;2022-09-25T07:50:27;100873.22;;;14.53;100.00
16120;BME280;12670;53.502;10.252;2022-09-25T07:53:29;100878.66;;;14.68;100.00
16120;BME280;12670;53.502;10.252;2022-09-25T07:56:33;100877.22;;;14.78;100.00
16120;BME280;12670;53.502;10.252;2022-09-25T07:59:38;100875.66;;;14.58;100.00
16120;BME280;12670;53.502;10.252;2022-09-25T08:02:40;100874.63;;;14.60;100.00
16120;BME280;12670;53.502;10.252;2022-09-25T08:05:43;100875.41;;;14.78;100.00
16120;BME280;12670;53.502;10.252;2022-09-25T08:08:45;100881.34;;;14.83;100.00
16120;BME280;12670;53.502;10.252;2022-09-25T08:11:49;100884.06;;;14.82;100.00
16120;BME280;12670;53.502;10.252;2022-09-25T08:14:52;100870.97;;;14.93;100.00
16120;BME280;12670;53.502;10.252;2022-09-25T08:17:54;100879.78;;;14.95;100.00
16120;BME280;12670;53.502;10.252;2022-09-25T08:20:59;100869.41;;;14.89;100.00
16120;BME280;12670;53.502;10.252;2022-09-25T08:24:02;100873.72;;;14.91;100.00
16120;BME280;12670;53.502;10.252;2022-09-25T08:27:06;100877.00;;;14.81;100.00
16120;BME280;12670;53.502;10.252;2022-09-25T08:30:10;100883.66;;;14.89;100.00
16120;BME280;12670;53.502;10.252;2022-09-25T08:33:14;100881.50;;;14.96;100.00
16120;BME280;12670;53.502;10.252;2022-09-25T08:36:17;100876.16;;;14.96;100.00
16120;BME280;12670;53.502;10.252;2022-09-25T08:39:19;100881.28;;;14.99;100.00
16120;BME280;12670;53.502;10.252;2022-09-25T08:42:26;100884.91;;;14.98;100.00
16120;BME280;12670;53.502;10.252;2022-09-25T08:45:33;100873.63;;;14.93;100.00
16120;BME280;12670;53.502;10.252;2022-09-25T08:48:55;100877.38;;;14.90;100.00
16120;BME280;12670;53.502;10.252;2022-09-25T08:52:11;100880.53;;;14.97;100.00
16120;BME280;12670;53.502;10.252;2022-09-25T08:55:19;100874.59;;;14.92;100.00
16120;BME280;12670;53.502;10.252;2022-09-25T08:58:26;100872.38;;;14.84;100.00
16120;BME280;12670;53.502;10.252;2022-09-25T09:01:41;100873.88;;;15.04;100.00
16120;BME280;12670;53.502;10.252;2022-09-25T09:04:46;100875.22;;;15.11;100.00
16120;BME280;12670;53.502;10.252;2022-09-25T09:07:55;100878.63;;;14.99;100.00
16120;BME280;12670;53.502;10.252;2022-09-25T09:11:02;100879.22;;;15.04;100.00
16120;BME280;12670;53.502;10.252;2022-09-25T09:14:16;100868.00;;;15.13;100.00
16120;BME280;12670;53.502;10.252;2022-09-25T09:17:23;100871.44;;;15.15;100.00
16120;BME280;12670;53.502;10.252;2022-09-25T09:20:33;100876.44;;;15.22;100.00
16120;BME280;12670;53.502;10.252;2022-09-25T09:23:46;100879.84;;;15.24;100.00
16120;BME280;12670;53.502;10.252;2022-09-25T09:27:05;100876.25;;;15.25;100.00
16120;BME280;12670;53.502;10.252;2022-09-25T09:30:17;100871.69;;;15.27;100.00
16120;BME280;12670;53.502;10.252;2022-09-25T09:33:33;100869.28;;;15.22;100.00
16120;BME280;12670;53.502;10.252;2022-09-25T09:36:45;100871.84;;;15.24;100.00
16120;BME280;12670;53.502;10.252;2022-09-25T09:40:01;100871.09;;;15.22;100.00
16120;BME280;12670;53.502;10.252;2022-09-25T09:43:22;100880.22;;;15.17;100.00
16120;BME280;12670;53.502;10.252;2022-09-25T09:46:40;100879.47;;;15.15;100.00
16120;BME280;12670;53.502;10.252;2022-09-25T09:49:49;100869.72;;;15.14;100.00
16120;BME280;12670;53.502;10.252;2022-09-25T09:52:58;100879.06;;;15.07;100.00
16120;BME280;12670;53.502;10.252;2022-09-25T09:56:09;100866.47;;;15.09;100.00
16120;BME280;12670;53.502;10.252;2022-09-25T09:59:17;100865.59;;;15.09;100.00
16120;BME280;12670;53.502;10.252;2022-09-25T10:02:29;100874.63;;;15.06;100.00
16120;BME280;12670;53.502;10.252;2022-09-25T10:05:37;100870.09;;;15.08;100.00
16120;BME280;12670;53.502;10.252;2022-09-25T10:08:41;100871.22;;;15.04;100.00
16120;BME280;12670;53.502;10.252;2022-09-25T10:11:45;100868.38;;;15.07;100.00
16120;BME280;12670;53.502;10.252;2022-09-25T10:14:48;100865.97;;;14.87;100.00
16120;BME280;12670;53.502;10.252;2022-09-25T10:17:53;100861.50;;;14.87;100.00
16120;BME280;12670;53.502;10.252;2022-09-25T10:21:01;100866.88;;;14.72;100.00
16120;BME280;12670;53.502;10.252;2022-09-25T10:24:05;100865.31;;;14.52;100.00
16120;BME280;12670;53.502;10.252;2022-09-25T10:27:20;100862.19;;;14.44;100.00
16120;BME280;12670;53.502;10.252;2022-09-25T10:30:23;100865.66;;;14.61;100.00
16120;BME280;12670;53.502;10.252;2022-09-25T10:33:29;100863.31;;;14.71;100.00
16120;BME280;12670;53.502;10.252;2022-09-25T10:36:38;100865.91;;;14.73;100.00
16120;BME280;12670;53.502;10.252;2022-09-25T10:39:41;100861.19;;;14.78;100.00
16120;BME280;12670;53.502;10.252;2022-09-25T10:42:46;100866.78;;;14.73;100.00
16120;BME280;12670;53.502;10.252;2022-09-25T10:45:49;100863.91;;;14.76;100.00
16120;BME280;12670;53.502;10.252;2022-09-25T10:49:10;100867.78;;;14.71;100.00
16120;BME280;12670;53.502;10.252;2022-09-25T10:52:44;100865.31;;;14.68;100.00
16120;BME280;12670;53.502;10.252;2022-09-25T10:55:50;100866.69;;;14.75;100.00
16120;BME280;12670;53.502;10.252;2022-09-25T10:58:57;100863.59;;;14.66;100.00
16120;BME280;12670;53.502;10.252;2022-09-25T11:02:11;100855.25;;;14.73;100.00
16120;BME280;12670;53.502;10.252;2022-09-25T11:05:18;100860.88;;;14.19;100.00
16120;BME280;12670;53.502;10.252;2022-09-25T11:08:24;100854.59;;;14.36;100.00
16120;BME280;12670;53.502;10.252;2022-09-25T11:11:30;100863.41;;;14.54;100.00
16120;BME280;12670;53.502;10.252;2022-09-25T11:14:34;100860.88;;;14.35;100.00
16120;BME280;12670;53.502;10.252;2022-09-25T11:17:39;100860.28;;;14.30;100.00
16120;BME280;12670;53.502;10.252;2022-09-25T11:21:00;100858.88;;;14.56;100.00
16120;BME280;12670;53.502;10.252;2022-09-25T11:24:12;100867.34;;;14.31;100.00
16120;BME280;12670;53.502;10.252;2022-09-25T11:27:20;100859.53;;;14.59;100.00
16120;BME280;12670;53.502;10.252;2022-09-25T11:30:30;100861.78;;;14.67;100.00
16120;BME280;12670;53.502;10.252;2022-09-25T11:33:41;100863.25;;;14.57;100.00
16120;BME280;12670;53.502;10.252;2022-09-25T11:36:48;100860.38;;;14.76;100.00
16120;BME280;12670;53.502;10.252;2022-09-25T11:40:00;100855.09;;;14.60;100.00
16120;BME280;12670;53.502;10.252;2022-09-25T11:43:37;100857.97;;;14.71;100.00
16120;BME280;12670;53.502;10.252;2022-09-25T11:46:47;100862.41;;;14.72;100.00
16120;BME280;12670;53.502;10.252;2022-09-25T11:49:52;100862.19;;;14.59;100.00
16120;BME280;12670;53.502;10.252;2022-09-25T11:53:02;100860.84;;;14.68;100.00
16120;BME280;12670;53.502;10.252;2022-09-25T11:56:20;100850.41;;;14.48;100.00
16120;BME280;12670;53.502;10.252;2022-09-25T11:59:36;100849.44;;;14.33;100.00
16120;BME280;12670;53.502;10.252;2022-09-25T12:03:00;100856.84;;;14.44;100.00
16120;BME280;12670;53.502;10.252;2022-09-25T12:06:23;100856.44;;;14.51;100.00
16120;BME280;12670;53.502;10.252;2022-09-25T12:09:51;100854.09;;;14.45;100.00
16120;BME280;12670;53.502;10.252;2022-09-25T12:13:05;100856.63;;;14.48;100.00
16120;BME280;12670;53.502;10.252;2022-09-25T12:16:18;100857.09;;;14.23;100.00
16120;BME280;12670;53.502;10.252;2022-09-25T12:19:31;100843.56;;;14.10;100.00
16120;BME280;12670;53.502;10.252;2022-09-25T12:22:46;100854.59;;;14.36;100.00
16120;BME280;12670;53.502;10.252;2022-09-25T12:26:12;100841.84;;;14.41;100.00
16120;BME280;12670;53.502;10.252;2022-09-25T12:29:31;100848.13;;;14.08;100.00
16120;BME280;12670;53.502;10.252;2022-09-25T12:32:48;100842.91;;;14.38;100.00
16120;BME280;12670;53.502;10.252;2022-09-25T12:35:57;100837.81;;;14.34;100.00
16120;BME280;12670;53.502;10.252;2022-09-25T12:39:03;100844.81;;;14.52;100.00
16120;BME280;12670;53.502;10.252;2022-09-25T12:42:15;100842.41;;;14.48;100.00
16120;BME280;12670;53.502;10.252;2022-09-25T12:45:24;100842.66;;;14.43;100.00
16120;BME280;12670;53.502;10.252;2022-09-25T12:48:33;100839.78;;;14.46;100.00
16120;BME280;12670;53.502;10.252;2022-09-25T12:51:40;100838.34;;;14.25;100.00
16120;BME280;12670;53.502;10.252;2022-09-25T12:54:51;100829.44;;;14.24;100.00
16120;BME280;12670;53.502;10.252;2022-09-25T12:58:06;100826.78;;;14.40;100.00
16120;BME280;12670;53.502;10.252;2022-09-25T13:01:21;100822.22;;;14.42;100.00
16120;BME280;12670;53.502;10.252;2022-09-25T13:04:36;100831.00;;;14.76;100.00
16120;BME280;12670;53.502;10.252;2022-09-25T13:07:47;100829.00;;;15.69;100.00
16120;BME280;12670;53.502;10.252;2022-09-25T13:10:53;100821.69;;;16.29;100.00
16120;BME280;12670;53.502;10.252;2022-09-25T13:14:00;100817.03;;;16.73;100.00
16120;BME280;12670;53.502;10.252;2022-09-25T13:17:05;100814.28;;;16.05;100.00
16120;BME280;12670;53.502;10.252;2022-09-25T13:20:39;100815.59;;;16.12;100.00
16120;BME280;12670;53.502;10.252;2022-09-25T13:23:47;100804.16;;;15.96;100.00
16120;BME280;12670;53.502;10.252;2022-09-25T13:26:53;100797.66;;;15.86;100.00
16120;BME280;12670;53.502;10.252;2022-09-25T13:29:59;100805.56;;;15.59;100.00
16120;BME280;12670;53.502;10.252;2022-09-25T13:33:02;100802.81;;;15.60;100.00
16120;BME280;12670;53.502;10.252;2022-09-25T13:36:07;100799.03;;;15.34;100.00
16120;BME280;12670;53.502;10.252;2022-09-25T13:39:18;100801.44;;;15.53;100.00
16120;BME280;12670;53.502;10.252;2022-09-25T13:42:40;100803.09;;;15.70;100.00
16120;BME280;12670;53.502;10.252;2022-09-25T13:45:45;100795.13;;;15.40;100.00
16120;BME280;12670;53.502;10.252;2022-09-25T13:48:49;100801.38;;;15.55;100.00
16120;BME280;12670;53.502;10.252;2022-09-25T13:51:52;100796.78;;;15.57;100.00
16120;BME280;12670;53.502;10.252;2022-09-25T13:55:10;100801.16;;;15.43;100.00
16120;BME280;12670;53.502;10.252;2022-09-25T13:58:16;100799.44;;;14.98;100.00
16120;BME280;12670;53.502;10.252;2022-09-25T14:01:32;100789.50;;;15.30;100.00
16120;BME280;12670;53.502;10.252;2022-09-25T14:04:36;100794.34;;;15.24;100.00
16120;BME280;12670;53.502;10.252;2022-09-25T14:07:40;100797.78;;;15.26;100.00
16120;BME280;12670;53.502;10.252;2022-09-25T14:10:43;100793.41;;;15.39;100.00
16120;BME280;12670;53.502;10.252;2022-09-25T14:13:50;100789.59;;;15.43;100.00
16120;BME280;12670;53.502;10.252;2022-09-25T14:16:57;100789.97;;;15.37;100.00
16120;BME280;12670;53.502;10.252;2022-09-25T14:20:04;100786.94;;;15.43;100.00
16120;BME280;12670;53.502;10.252;2022-09-25T14:23:13;100789.78;;;15.40;100.00
16120;BME280;12670;53.502;10.252;2022-09-25T14:26:18;100782.06;;;15.50;100.00
16120;BME280;12670;53.502;10.252;2022-09-25T14:29:23;100785.56;;;15.36;100.00
16120;BME280;12670;53.502;10.252;2022-09-25T14:32:38;100777.81;;;15.17;100.00
16120;BME280;12670;53.502;10.252;2022-09-25T14:36:04;100783.47;;;15.41;100.00
16120;BME280;12670;53.502;10.252;2022-09-25T14:39:21;100783.63;;;15.24;100.00
16120;BME280;12670;53.502;10.252;2022-09-25T14:42:41;100775.63;;;15.24;100.00
16120;BME280;12670;53.502;10.252;2022-09-25T14:46:01;100775.75;;;14.92;100.00
16120;BME280;12670;53.502;10.252;2022-09-25T14:49:20;100773.41;;;15.02;100.00
16120;BME280;12670;53.502;10.252;2022-09-25T14:52:26;100771.81;;;15.13;100.00
16120;BME280;12670;53.502;10.252;2022-09-25T14:55:33;100769.34;;;15.25;100.00
16120;BME280;12670;53.502;10.252;2022-09-25T14:58:39;100767.06;;;15.33;100.00
16120;BME280;12670;53.502;10.252;2022-09-25T15:01:45;100767.97;;;15.17;100.00
16120;BME280;12670;53.502;10.252;2022-09-25T15:04:55;100760.00;;;15.32;100.00
16120;BME280;12670;53.502;10.252;2022-09-25T15:07:59;100756.38;;;15.33;100.00
16120;BME280;12670;53.502;10.252;2022-09-25T15:11:09;100734.81;;;15.64;100.00
16120;BME280;12670;53.502;10.252;2022-09-25T15:14:15;100738.06;;;15.69;100.00
16120;BME280;12670;53.502;10.252;2022-09-25T15:17:19;100736.50;;;15.51;100.00
16120;BME280;12670;53.502;10.252;2022-09-25T15:20:28;100735.06;;;15.45;100.00
16120;BME280;12670;53.502;10.252;2022-09-25T15:23:31;100733.84;;;15.51;100.00
16120;BME280;12670;53.502;10.252;2022-09-25T15:26:42;100731.53;;;15.45;100.00
16120;BME280;12670;53.502;10.252;2022-09-25T15:29:46;100728.28;;;15.40;100.00
16120;BME280;12670;53.502;10.252;2022-09-25T15:32:52;100726.59;;;15.25;100.00
16120;BME280;12670;53.502;10.252;2022-09-25T15:36:12;100729.63;;;15.33;100.00
16120;BME280;12670;53.502;10.252;2022-09-25T15:39:20;100732.03;;;15.37;100.00
16120;BME280;12670;53.502;10.252;2022-09-25T15:42:23;100729.72;;;15.45;100.00
16120;BME280;12670;53.502;10.252;2022-09-25T15:45:37;100729.84;;;15.44;100.00
16120;BME280;12670;53.502;10.252;2022-09-25T15:48:49;100722.53;;;15.03;100.00
16120;BME280;12670;53.502;10.252;2022-09-25T15:51:57;100719.41;;;15.11;100.00
16120;BME280;12670;53.502;10.252;2022-09-25T15:55:04;100728.31;;;15.26;100.00